Alpena, MI

4:41 PM EDT on May 27, 2015 (GMT -0400)
Presque Isle County | | Change Station
CLOSE
Current Station
Airport
Location: Rogers City,
Elevation: 669 ft
Nearby Weather Stations

Elev 669 ft 45.41 °N, 83.81 °W | Updated 6 minutes ago

Overcast
Overcast
63 °F
Feels Like 63 °F
N
13
Wind Variable Wind from West
Gusts 21 mph

Today
High -- | Low -- °F
--% Chance of Precip.
Yesterday
High -- | Low -- °F
Precip. -- in
5:53 AM 9:09 PM
Waxing Gibbous, 70% visible
Pressure 29.88 in
Visibility 7.0 miles
Clouds Scattered Clouds 1400 ft
Mostly Cloudy 4000 ft
Overcast 6000 ft
Dew Point 58 °F
Humidity 83%
Rainfall 0.00 in
Snow Depth Not available.
UV 2 out of 12
Pollen 6.60 out of 12
Air Quality Not available.
Flu Activity Sporadic
METAR KPZQ 272035Z AUTO 26011G18KT 7SM SCT014 BKN040 OVC060 17/14 A2988 RMK AO2 T01710142

More Conditions Fewer Conditions

Pressure 29.88 in
Visibility 7.0 miles
Clouds Scattered Clouds 1400 ft
Mostly Cloudy 4000 ft
Overcast 6000 ft
Dew Point 58 °F
Humidity 83%
Rainfall 0.00 in
Snow Depth Not available.
UV 2 out of 12
Pollen 6.60 out of 12
Air Quality Not available.
Flu Activity Sporadic
METAR KPZQ 272035Z AUTO 26011G18KT 7SM SCT014 BKN040 OVC060 17/14 A2988 RMK AO2 T01710142

More Conditions Fewer Conditions

10-Day Weather Forecast

Almanac

Astronomy

May. 27, 2015 Rise Set
Actual Time
Civil Twilight
Nautical Twilight
Astronomical Twilight
Moon
Length of Visible Light
Length of Day
Tomorrow will be .
, % of the Moon is Illuminated

Today's Extremes

State Highs State Lows

Community

WunderPhotos

Upload Photos

1,824,782 photos uploaded!

WunderBlogs® & News

Nearby

Air Quality

  Air Quality AQ Index Pollutant
Not available.

Snow Depth

Station Depth Elevation

Earthquake Activity

City Distance Mag. Time & Date
Minimum magnitude displayed is 2.5.

Coastal Water Temperatures

Place Temperature

Stations

Nearby Weather Stations

Station Location Temp. Windchill Dew Point Humidity Wind Precip. Elev Updated Type